sensor_id;sensor_type;location;lat;lon;timestamp;pressure;altitude;pressure_sealevel;temperature;humidity
68525;BME280;55524;51.380;13.372;2022-12-29T00:01:35;99917.41;;;8.49;82.85
68525;BME280;55524;51.380;13.372;2022-12-29T00:04:03;99917.69;;;8.42;84.38
68525;BME280;55524;51.380;13.372;2022-12-29T00:06:29;99920.66;;;8.32;85.71
68525;BME280;55524;51.380;13.372;2022-12-29T00:08:56;99894.44;;;8.29;86.03
68525;BME280;55524;51.380;13.372;2022-12-29T00:11:25;99883.91;;;8.29;86.24
68525;BME280;55524;51.380;13.372;2022-12-29T00:13:52;99884.06;;;8.25;86.88
68525;BME280;55524;51.380;13.372;2022-12-29T00:16:40;99888.69;;;8.18;88.36
68525;BME280;55524;51.380;13.372;2022-12-29T00:19:06;99881.53;;;8.22;87.14
68525;BME280;55524;51.380;13.372;2022-12-29T00:21:52;99876.22;;;8.23;87.67
68525;BME280;55524;51.380;13.372;2022-12-29T00:24:37;99887.56;;;8.25;87.50
68525;BME280;55524;51.380;13.372;2022-12-29T00:27:22;99882.94;;;8.32;87.31
68525;BME280;55524;51.380;13.372;2022-12-29T00:30:16;99891.63;;;8.34;87.05
68525;BME280;55524;51.380;13.372;2022-12-29T00:33:07;99886.41;;;8.32;87.81
68525;BME280;55524;51.380;13.372;2022-12-29T00:35:53;99892.72;;;8.28;89.10
68525;BME280;55524;51.380;13.372;2022-12-29T00:38:21;99893.75;;;8.24;90.28
68525;BME280;55524;51.380;13.372;2022-12-29T00:41:06;99888.34;;;8.27;89.82
68525;BME280;55524;51.380;13.372;2022-12-29T00:43:51;99882.47;;;8.21;90.99
68525;BME280;55524;51.380;13.372;2022-12-29T00:46:36;99885.19;;;8.18;91.36
68525;BME280;55524;51.380;13.372;2022-12-29T00:49:04;99873.72;;;8.20;90.85
68525;BME280;55524;51.380;13.372;2022-12-29T00:51:49;99869.81;;;8.30;90.06
68525;BME280;55524;51.380;13.372;2022-12-29T00:54:16;99874.41;;;8.25;90.89
68525;BME280;55524;51.380;13.372;2022-12-29T00:56:43;99863.94;;;8.47;87.93
68525;BME280;55524;51.380;13.372;2022-12-29T00:59:11;99860.34;;;8.50;88.34
68525;BME280;55524;51.380;13.372;2022-12-29T01:01:38;99862.13;;;8.49;88.54
68525;BME280;55524;51.380;13.372;2022-12-29T01:04:05;99865.50;;;8.53;88.30
68525;BME280;55524;51.380;13.372;2022-12-29T01:06:32;99847.50;;;8.64;86.79
68525;BME280;55524;51.380;13.372;2022-12-29T01:08:59;99854.84;;;8.78;86.18
68525;BME280;55524;51.380;13.372;2022-12-29T01:11:44;99858.91;;;8.65;87.50
68525;BME280;55524;51.380;13.372;2022-12-29T01:14:10;99867.84;;;8.60;88.68
68525;BME280;55524;51.380;13.372;2022-12-29T01:16:36;99869.47;;;8.63;88.90
68525;BME280;55524;51.380;13.372;2022-12-29T01:19:03;99869.47;;;8.63;88.75
68525;BME280;55524;51.380;13.372;2022-12-29T01:21:30;99866.16;;;8.58;90.05
68525;BME280;55524;51.380;13.372;2022-12-29T01:23:57;99869.19;;;8.47;91.79
68525;BME280;55524;51.380;13.372;2022-12-29T01:26:23;99870.47;;;8.37;93.49
68525;BME280;55524;51.380;13.372;2022-12-29T01:28:49;99859.16;;;8.33;93.49
68525;BME280;55524;51.380;13.372;2022-12-29T01:31:16;99852.94;;;8.36;93.26
68525;BME280;55524;51.380;13.372;2022-12-29T01:33:43;99850.09;;;8.42;92.99
68525;BME280;55524;51.380;13.372;2022-12-29T01:36:14;99860.31;;;8.26;94.36
68525;BME280;55524;51.380;13.372;2022-12-29T01:38:41;99857.63;;;8.28;94.26
68525;BME280;55524;51.380;13.372;2022-12-29T01:41:09;99848.50;;;8.38;92.81
68525;BME280;55524;51.380;13.372;2022-12-29T01:43:54;99844.44;;;8.53;91.87
68525;BME280;55524;51.380;13.372;2022-12-29T01:51:55;99840.94;;;8.52;91.97
68525;BME280;55524;51.380;13.372;2022-12-29T01:54:32;99841.53;;;8.59;91.11
68525;BME280;55524;51.380;13.372;2022-12-29T01:57:03;99834.38;;;8.62;90.73
68525;BME280;55524;51.380;13.372;2022-12-29T01:59:37;99829.91;;;8.65;90.83
68525;BME280;55524;51.380;13.372;2022-12-29T02:02:05;99820.41;;;8.82;89.12
68525;BME280;55524;51.380;13.372;2022-12-29T02:04:33;99823.94;;;8.83;88.54
68525;BME280;55524;51.380;13.372;2022-12-29T02:07:07;99828.63;;;8.97;87.88
68525;BME280;55524;51.380;13.372;2022-12-29T02:09:36;99809.25;;;8.98;87.10
68525;BME280;55524;51.380;13.372;2022-12-29T02:12:03;99809.88;;;9.04;86.82
68525;BME280;55524;51.380;13.372;2022-12-29T02:14:30;99794.72;;;9.09;86.59
68525;BME280;55524;51.380;13.372;2022-12-29T02:17:11;99796.09;;;9.18;85.22
68525;BME280;55524;51.380;13.372;2022-12-29T02:22:37;99795.25;;;9.38;83.59
68525;BME280;55524;51.380;13.372;2022-12-29T02:34:00;99790.13;;;9.55;82.04
68525;BME280;55524;51.380;13.372;2022-12-29T02:39:38;99774.47;;;9.71;81.50
68525;BME280;55524;51.380;13.372;2022-12-29T02:45:03;99793.72;;;9.73;80.78
68525;BME280;55524;51.380;13.372;2022-12-29T02:47:50;99795.38;;;9.76;81.18
68525;BME280;55524;51.380;13.372;2022-12-29T02:52:58;99774.41;;;9.92;79.75
68525;BME280;55524;51.380;13.372;2022-12-29T02:55:26;99781.69;;;9.87;80.21
68525;BME280;55524;51.380;13.372;2022-12-29T02:58:25;99790.53;;;9.85;80.94
68525;BME280;55524;51.380;13.372;2022-12-29T03:03:48;99782.44;;;9.90;80.52
68525;BME280;55524;51.380;13.372;2022-12-29T03:06:41;99776.84;;;9.96;80.02
68525;BME280;55524;51.380;13.372;2022-12-29T03:15:07;99780.47;;;9.94;80.11
68525;BME280;55524;51.380;13.372;2022-12-29T03:18:01;99760.78;;;10.01;79.12
68525;BME280;55524;51.380;13.372;2022-12-29T03:23:33;99752.47;;;10.10;78.63
68525;BME280;55524;51.380;13.372;2022-12-29T03:26:03;99748.44;;;10.01;80.12
68525;BME280;55524;51.380;13.372;2022-12-29T03:28:38;99751.25;;;9.98;80.13
68525;BME280;55524;51.380;13.372;2022-12-29T03:31:08;99749.53;;;9.97;79.71
68525;BME280;55524;51.380;13.372;2022-12-29T03:33:36;99752.88;;;10.01;78.99
68525;BME280;55524;51.380;13.372;2022-12-29T03:36:07;99753.59;;;10.04;79.10
68525;BME280;55524;51.380;13.372;2022-12-29T03:38:55;99736.81;;;10.05;78.73
68525;BME280;55524;51.380;13.372;2022-12-29T03:41:28;99748.53;;;10.00;78.81
68525;BME280;55524;51.380;13.372;2022-12-29T03:43:55;99759.53;;;9.91;79.70
68525;BME280;55524;51.380;13.372;2022-12-29T03:46:21;99745.47;;;9.90;79.34
68525;BME280;55524;51.380;13.372;2022-12-29T03:48:47;99746.25;;;9.92;79.42
68525;BME280;55524;51.380;13.372;2022-12-29T03:51:14;99747.03;;;9.94;80.12
68525;BME280;55524;51.380;13.372;2022-12-29T03:53:40;99746.38;;;9.89;80.52
68525;BME280;55524;51.380;13.372;2022-12-29T03:56:06;99742.75;;;9.92;80.51
68525;BME280;55524;51.380;13.372;2022-12-29T03:58:32;99744.75;;;10.05;79.94
68525;BME280;55524;51.380;13.372;2022-12-29T04:00:59;99744.75;;;10.05;79.66
68525;BME280;55524;51.380;13.372;2022-12-29T04:03:25;99747.69;;;9.99;80.93
68525;BME280;55524;51.380;13.372;2022-12-29T04:05:51;99747.69;;;9.99;80.15
68525;BME280;55524;51.380;13.372;2022-12-29T04:08:17;99746.81;;;9.99;80.77
68525;BME280;55524;51.380;13.372;2022-12-29T04:10:44;99759.19;;;9.98;80.65
68525;BME280;55524;51.380;13.372;2022-12-29T04:13:10;99757.25;;;10.02;80.52
68525;BME280;55524;51.380;13.372;2022-12-29T04:15:36;99761.59;;;10.03;80.51
68525;BME280;55524;51.380;13.372;2022-12-29T04:18:03;99766.06;;;10.01;80.65
68525;BME280;55524;51.380;13.372;2022-12-29T04:20:29;99753.91;;;9.98;80.68
68525;BME280;55524;51.380;13.372;2022-12-29T04:23:14;99765.22;;;10.00;80.93
68525;BME280;55524;51.380;13.372;2022-12-29T04:25:40;99754.53;;;10.03;81.04
68525;BME280;55524;51.380;13.372;2022-12-29T04:28:06;99757.81;;;10.08;80.54
68525;BME280;55524;51.380;13.372;2022-12-29T04:30:33;99747.19;;;10.10;80.75
68525;BME280;55524;51.380;13.372;2022-12-29T04:33:00;99763.94;;;10.09;81.14
68525;BME280;55524;51.380;13.372;2022-12-29T04:35:26;99763.03;;;10.10;81.02
68525;BME280;55524;51.380;13.372;2022-12-29T04:37:52;99772.44;;;10.16;81.45
68525;BME280;55524;51.380;13.372;2022-12-29T04:40:18;99779.59;;;10.14;82.52
68525;BME280;55524;51.380;13.372;2022-12-29T04:42:45;99774.00;;;10.01;83.04
68525;BME280;55524;51.380;13.372;2022-12-29T04:45:11;99787.34;;;9.98;84.38
68525;BME280;55524;51.380;13.372;2022-12-29T04:47:37;99774.66;;;10.06;83.59
68525;BME280;55524;51.380;13.372;2022-12-29T04:50:04;99786.97;;;10.05;83.77
68525;BME280;55524;51.380;13.372;2022-12-29T04:52:30;99779.13;;;10.04;83.68
68525;BME280;55524;51.380;13.372;2022-12-29T04:54:56;99790.69;;;10.01;83.66
68525;BME280;55524;51.380;13.372;2022-12-29T04:57:23;99789.47;;;10.08;83.05
68525;BME280;55524;51.380;13.372;2022-12-29T04:59:49;99779.84;;;10.07;83.14
68525;BME280;55524;51.380;13.372;2022-12-29T05:02:16;99767.44;;;10.09;82.85
68525;BME280;55524;51.380;13.372;2022-12-29T05:04:42;99775.34;;;10.09;83.28
68525;BME280;55524;51.380;13.372;2022-12-29T05:07:09;99776.63;;;10.01;83.57
68525;BME280;55524;51.380;13.372;2022-12-29T05:09:35;99766.78;;;10.04;83.67
68525;BME280;55524;51.380;13.372;2022-12-29T05:12:01;99774.66;;;10.06;83.79
68525;BME280;55524;51.380;13.372;2022-12-29T05:14:28;99777.34;;;10.04;83.83
68525;BME280;55524;51.380;13.372;2022-12-29T05:16:54;99778.50;;;9.99;84.16
68525;BME280;55524;51.380;13.372;2022-12-29T05:19:20;99766.38;;;9.95;84.46
68525;BME280;55524;51.380;13.372;2022-12-29T05:21:46;99764.59;;;9.95;84.69
68525;BME280;55524;51.380;13.372;2022-12-29T05:24:13;99746.38;;;9.89;85.31
68525;BME280;55524;51.380;13.372;2022-12-29T05:26:39;99751.09;;;10.01;84.78
68525;BME280;55524;51.380;13.372;2022-12-29T05:29:05;99746.16;;;9.94;84.93
68525;BME280;55524;51.380;13.372;2022-12-29T05:31:31;99751.44;;;9.94;85.34
68525;BME280;55524;51.380;13.372;2022-12-29T05:33:58;99732.78;;;9.98;85.44
68525;BME280;55524;51.380;13.372;2022-12-29T05:36:24;99739.25;;;9.91;85.42
68525;BME280;55524;51.380;13.372;2022-12-29T05:38:50;99722.84;;;10.03;84.55
68525;BME280;55524;51.380;13.372;2022-12-29T05:41:16;99699.50;;;10.13;83.90
68525;BME280;55524;51.380;13.372;2022-12-29T05:43:43;99706.16;;;10.03;85.23
68525;BME280;55524;51.380;13.372;2022-12-29T05:46:09;99715.56;;;10.08;84.04
68525;BME280;55524;51.380;13.372;2022-12-29T05:48:35;99701.00;;;10.19;83.42
68525;BME280;55524;51.380;13.372;2022-12-29T05:51:01;99716.75;;;10.20;83.02
68525;BME280;55524;51.380;13.372;2022-12-29T05:53:28;99710.63;;;10.20;83.46
68525;BME280;55524;51.380;13.372;2022-12-29T05:55:54;99704.72;;;10.15;83.18
68525;BME280;55524;51.380;13.372;2022-12-29T05:58:20;99710.00;;;10.15;83.08
68525;BME280;55524;51.380;13.372;2022-12-29T06:00:46;99697.53;;;10.18;82.56
68525;BME280;55524;51.380;13.372;2022-12-29T06:03:15;99690.72;;;10.13;83.35
68525;BME280;55524;51.380;13.372;2022-12-29T06:05:44;99690.72;;;10.13;82.84
68525;BME280;55524;51.380;13.372;2022-12-29T06:08:10;99683.81;;;10.10;82.93
68525;BME280;55524;51.380;13.372;2022-12-29T06:10:36;99680.03;;;10.16;82.46
68525;BME280;55524;51.380;13.372;2022-12-29T06:13:02;99678.31;;;10.15;82.87
68525;BME280;55524;51.380;13.372;2022-12-29T06:15:32;99684.53;;;10.14;82.88
68525;BME280;55524;51.380;13.372;2022-12-29T06:17:58;99676.53;;;10.15;82.91
68525;BME280;55524;51.380;13.372;2022-12-29T06:20:25;99674.13;;;10.10;82.41
68525;BME280;55524;51.380;13.372;2022-12-29T06:22:51;99675.13;;;10.08;83.16
68525;BME280;55524;51.380;13.372;2022-12-29T06:25:17;99688.09;;;10.13;82.66
68525;BME280;55524;51.380;13.372;2022-12-29T06:27:47;99703.16;;;10.10;83.00
68525;BME280;55524;51.380;13.372;2022-12-29T06:30:13;99694.66;;;10.04;82.91
68525;BME280;55524;51.380;13.372;2022-12-29T06:32:40;99712.44;;;10.00;83.52
68525;BME280;55524;51.380;13.372;2022-12-29T06:35:07;99708.94;;;10.00;83.83
68525;BME280;55524;51.380;13.372;2022-12-29T06:37:33;99711.44;;;10.03;83.08
68525;BME280;55524;51.380;13.372;2022-12-29T06:39:59;99726.66;;;9.98;83.99
68525;BME280;55524;51.380;13.372;2022-12-29T06:42:26;99725.75;;;9.97;83.70
68525;BME280;55524;51.380;13.372;2022-12-29T06:44:52;99731.97;;;9.96;84.11
68525;BME280;55524;51.380;13.372;2022-12-29T06:47:18;99723.44;;;9.91;84.24
68525;BME280;55524;51.380;13.372;2022-12-29T06:49:45;99731.22;;;9.94;84.05
68525;BME280;55524;51.380;13.372;2022-12-29T06:52:12;99729.56;;;9.92;84.71
68525;BME280;55524;51.380;13.372;2022-12-29T06:54:38;99730.53;;;9.89;84.47
68525;BME280;55524;51.380;13.372;2022-12-29T06:57:04;99736.63;;;9.91;84.88
68525;BME280;55524;51.380;13.372;2022-12-29T06:59:30;99735.81;;;9.89;84.76
68525;BME280;55524;51.380;13.372;2022-12-29T07:01:57;99739.59;;;9.83;84.75
68525;BME280;55524;51.380;13.372;2022-12-29T07:04:23;99729.63;;;9.90;84.82
68525;BME280;55524;51.380;13.372;2022-12-29T07:06:49;99750.53;;;9.95;84.89
68525;BME280;55524;51.380;13.372;2022-12-29T07:09:16;99758.31;;;9.98;84.37
68525;BME280;55524;51.380;13.372;2022-12-29T07:11:42;99744.97;;;10.01;84.58
68525;BME280;55524;51.380;13.372;2022-12-29T07:14:09;99750.19;;;10.02;84.13
68525;BME280;55524;51.380;13.372;2022-12-29T07:16:36;99752.47;;;10.10;84.41
68525;BME280;55524;51.380;13.372;2022-12-29T07:19:03;99762.94;;;10.12;84.30
68525;BME280;55524;51.380;13.372;2022-12-29T07:21:29;99750.38;;;10.17;83.52
68525;BME280;55524;51.380;13.372;2022-12-29T07:23:55;99759.31;;;10.14;84.08
68525;BME280;55524;51.380;13.372;2022-12-29T07:26:22;99752.88;;;10.20;83.90
68525;BME280;55524;51.380;13.372;2022-12-29T07:28:48;99745.63;;;10.25;84.22
68525;BME280;55524;51.380;13.372;2022-12-29T07:31:17;99745.25;;;10.32;83.77
68525;BME280;55524;51.380;13.372;2022-12-29T07:33:45;99737.56;;;10.28;84.82
68525;BME280;55524;51.380;13.372;2022-12-29T07:36:12;99731.34;;;10.29;84.39
68525;BME280;55524;51.380;13.372;2022-12-29T07:38:39;99727.13;;;10.25;85.20
68525;BME280;55524;51.380;13.372;2022-12-29T07:41:05;99740.63;;;10.19;85.07
68525;BME280;55524;51.380;13.372;2022-12-29T07:43:31;99739.53;;;10.23;84.77
68525;BME280;55524;51.380;13.372;2022-12-29T07:45:58;99739.59;;;10.21;84.97
68525;BME280;55524;51.380;13.372;2022-12-29T07:48:24;99739.81;;;10.17;86.23
68525;BME280;55524;51.380;13.372;2022-12-29T07:50:51;99735.38;;;10.17;85.28
68525;BME280;55524;51.380;13.372;2022-12-29T07:53:18;99749.88;;;10.08;86.50
68525;BME280;55524;51.380;13.372;2022-12-29T07:55:44;99757.16;;;10.03;86.57
68525;BME280;55524;51.380;13.372;2022-12-29T07:58:11;99765.81;;;10.07;86.35
68525;BME280;55524;51.380;13.372;2022-12-29T08:00:38;99771.66;;;10.14;86.05
68525;BME280;55524;51.380;13.372;2022-12-29T08:03:05;99765.94;;;10.23;85.71
68525;BME280;55524;51.380;13.372;2022-12-29T08:05:32;99780.22;;;10.19;86.09
68525;BME280;55524;51.380;13.372;2022-12-29T08:07:59;99780.34;;;10.16;86.85
68525;BME280;55524;51.380;13.372;2022-12-29T08:10:26;99777.50;;;10.20;86.19
68525;BME280;55524;51.380;13.372;2022-12-29T08:12:52;99783.63;;;10.21;86.92
68525;BME280;55524;51.380;13.372;2022-12-29T08:15:18;99779.94;;;10.25;86.24
68525;BME280;55524;51.380;13.372;2022-12-29T08:17:44;99778.69;;;10.33;85.55
68525;BME280;55524;51.380;13.372;2022-12-29T08:20:11;99774.97;;;10.38;85.70
68525;BME280;55524;51.380;13.372;2022-12-29T08:22:37;99775.81;;;10.38;85.43
68525;BME280;55524;51.380;13.372;2022-12-29T08:25:05;99763.09;;;10.46;83.78
68525;BME280;55524;51.380;13.372;2022-12-29T08:27:31;99765.25;;;10.38;85.27
68525;BME280;55524;51.380;13.372;2022-12-29T08:29:57;99755.59;;;10.37;85.27
68525;BME280;55524;51.380;13.372;2022-12-29T08:32:26;99756.25;;;10.42;84.22
68525;BME280;55524;51.380;13.372;2022-12-29T08:34:55;99754.53;;;10.41;85.37
68525;BME280;55524;51.380;13.372;2022-12-29T08:37:21;99756.19;;;10.44;84.08
68525;BME280;55524;51.380;13.372;2022-12-29T08:39:48;99757.97;;;10.43;83.99
68525;BME280;55524;51.380;13.372;2022-12-29T08:42:14;99763.38;;;10.40;83.77
68525;BME280;55524;51.380;13.372;2022-12-29T08:44:40;99768.25;;;10.49;82.65
68525;BME280;55524;51.380;13.372;2022-12-29T08:47:08;99763.16;;;10.45;83.41
68525;BME280;55524;51.380;13.372;2022-12-29T08:49:35;99768.38;;;10.46;82.25
68525;BME280;55524;51.380;13.372;2022-12-29T08:52:01;99779.09;;;10.43;82.96
68525;BME280;55524;51.380;13.372;2022-12-29T08:54:27;99762.25;;;10.46;82.35
68525;BME280;55524;51.380;13.372;2022-12-29T08:56:53;99769.66;;;10.56;82.79
68525;BME280;55524;51.380;13.372;2022-12-29T08:59:20;99766.75;;;10.80;80.32
68525;BME280;55524;51.380;13.372;2022-12-29T09:01:46;99763.09;;;10.82;81.11
68525;BME280;55524;51.380;13.372;2022-12-29T09:04:12;99761.06;;;10.88;80.33
68525;BME280;55524;51.380;13.372;2022-12-29T09:06:38;99757.66;;;10.86;79.74
68525;BME280;55524;51.380;13.372;2022-12-29T09:09:05;99767.22;;;10.88;80.31
68525;BME280;55524;51.380;13.372;2022-12-29T09:11:31;99767.38;;;10.85;79.85
68525;BME280;55524;51.380;13.372;2022-12-29T09:13:58;99759.50;;;10.83;79.79
68525;BME280;55524;51.380;13.372;2022-12-29T09:16:25;99769.94;;;10.87;80.24
68525;BME280;55524;51.380;13.372;2022-12-29T09:18:51;99772.69;;;10.85;80.76
68525;BME280;55524;51.380;13.372;2022-12-29T09:21:17;99762.78;;;10.89;79.71
68525;BME280;55524;51.380;13.372;2022-12-29T09:23:43;99774.84;;;10.94;78.93
68525;BME280;55524;51.380;13.372;2022-12-29T09:26:10;99772.53;;;11.05;78.35
68525;BME280;55524;51.380;13.372;2022-12-29T09:28:36;99771.59;;;11.06;78.50
68525;BME280;55524;51.380;13.372;2022-12-29T09:31:03;99761.25;;;11.19;78.29
68525;BME280;55524;51.380;13.372;2022-12-29T09:33:29;99752.16;;;11.25;77.48
68525;BME280;55524;51.380;13.372;2022-12-29T09:35:57;99748.41;;;11.29;77.19
68525;BME280;55524;51.380;13.372;2022-12-29T09:38:25;99747.63;;;11.44;76.23
68525;BME280;55524;51.380;13.372;2022-12-29T09:40:59;99754.47;;;11.48;76.92
68525;BME280;55524;51.380;13.372;2022-12-29T09:44:02;99748.25;;;11.49;77.15
68525;BME280;55524;51.380;13.372;2022-12-29T09:46:39;99740.25;;;11.67;75.70
68525;BME280;55524;51.380;13.372;2022-12-29T09:49:27;99733.22;;;11.83;74.74
68525;BME280;55524;51.380;13.372;2022-12-29T09:52:00;99716.66;;;11.95;74.38
68525;BME280;55524;51.380;13.372;2022-12-29T09:54:53;99733.66;;;11.91;74.85
68525;BME280;55524;51.380;13.372;2022-12-29T10:00:14;99701.56;;;12.29;72.95
68525;BME280;55524;51.380;13.372;2022-12-29T10:03:10;99699.75;;;12.45;73.50
68525;BME280;55524;51.380;13.372;2022-12-29T10:05:52;99687.50;;;12.59;71.49
68525;BME280;55524;51.380;13.372;2022-12-29T10:11:18;99688.53;;;12.56;71.71
68525;BME280;55524;51.380;13.372;2022-12-29T10:24:33;99661.81;;;12.75;69.63
68525;BME280;55524;51.380;13.372;2022-12-29T10:27:00;99658.09;;;12.77;70.17
68525;BME280;55524;51.380;13.372;2022-12-29T10:29:35;99660.75;;;12.77;70.35
68525;BME280;55524;51.380;13.372;2022-12-29T10:32:38;99671.38;;;12.77;70.05
68525;BME280;55524;51.380;13.372;2022-12-29T10:35:25;99664.59;;;12.88;68.36
68525;BME280;55524;51.380;13.372;2022-12-29T10:38:09;99656.63;;;13.02;68.96
68525;BME280;55524;51.380;13.372;2022-12-29T10:43:29;99654.31;;;12.67;69.65
68525;BME280;55524;51.380;13.372;2022-12-29T10:45:59;99655.44;;;12.63;69.93
68525;BME280;55524;51.380;13.372;2022-12-29T10:48:32;99654.94;;;12.57;70.72
68525;BME280;55524;51.380;13.372;2022-12-29T10:51:02;99668.53;;;12.50;70.36
68525;BME280;55524;51.380;13.372;2022-12-29T10:56:16;99666.94;;;12.48;70.41
68525;BME280;55524;51.380;13.372;2022-12-29T10:58:49;99667.78;;;12.48;70.44
68525;BME280;55524;51.380;13.372;2022-12-29T11:01:17;99663.50;;;12.46;70.91
68525;BME280;55524;51.380;13.372;2022-12-29T11:04:02;99662.75;;;12.44;71.36
68525;BME280;55524;51.380;13.372;2022-12-29T11:06:29;99654.28;;;12.37;70.81
68525;BME280;55524;51.380;13.372;2022-12-29T11:09:10;99648.56;;;12.29;70.81
68525;BME280;55524;51.380;13.372;2022-12-29T11:11:38;99655.41;;;12.33;70.98
68525;BME280;55524;51.380;13.372;2022-12-29T11:14:19;99645.31;;;12.40;71.13
68525;BME280;55524;51.380;13.372;2022-12-29T11:17:00;99647.00;;;12.41;70.56
68525;BME280;55524;51.380;13.372;2022-12-29T11:19:30;99664.19;;;12.34;71.73
68525;BME280;55524;51.380;13.372;2022-12-29T11:22:20;99646.50;;;12.34;71.47
68525;BME280;55524;51.380;13.372;2022-12-29T11:24:49;99648.44;;;12.46;71.27
68525;BME280;55524;51.380;13.372;2022-12-29T11:27:21;99642.25;;;12.62;71.15
68525;BME280;55524;51.380;13.372;2022-12-29T11:29:50;99654.09;;;12.56;72.23
68525;BME280;55524;51.380;13.372;2022-12-29T11:32:28;99644.91;;;12.62;72.01
68525;BME280;55524;51.380;13.372;2022-12-29T11:34:58;99640.56;;;12.61;70.67
68525;BME280;55524;51.380;13.372;2022-12-29T11:37:37;99641.06;;;12.67;71.33
68525;BME280;55524;51.380;13.372;2022-12-29T11:40:20;99636.09;;;12.61;70.74
68525;BME280;55524;51.380;13.372;2022-12-29T11:42:59;99630.00;;;12.75;71.54
68525;BME280;55524;51.380;13.372;2022-12-29T11:45:31;99628.13;;;12.91;71.39
68525;BME280;55524;51.380;13.372;2022-12-29T11:48:08;99628.94;;;12.77;70.72
68525;BME280;55524;51.380;13.372;2022-12-29T11:50:40;99621.31;;;12.87;70.08
68525;BME280;55524;51.380;13.372;2022-12-29T11:55:57;99629.28;;;13.01;70.22
68525;BME280;55524;51.380;13.372;2022-12-29T11:58:35;99634.84;;;12.97;70.76
68525;BME280;55524;51.380;13.372;2022-12-29T12:03:56;99653.59;;;12.79;71.30
68525;BME280;55524;51.380;13.372;2022-12-29T12:06:26;99641.00;;;12.83;71.21
68525;BME280;55524;51.380;13.372;2022-12-29T12:09:33;99626.13;;;12.80;70.31
68525;BME280;55524;51.380;13.372;2022-12-29T12:12:02;99639.47;;;12.79;71.36
68525;BME280;55524;51.380;13.372;2022-12-29T12:14:43;99626.63;;;12.87;71.23
68525;BME280;55524;51.380;13.372;2022-12-29T12:17:14;99632.88;;;13.00;71.51
68525;BME280;55524;51.380;13.372;2022-12-29T12:20:02;99624.75;;;13.03;69.83
68525;BME280;55524;51.380;13.372;2022-12-29T12:22:44;99638.75;;;12.91;71.38
68525;BME280;55524;51.380;13.372;2022-12-29T12:28:11;99624.31;;;12.81;71.23
68525;BME280;55524;51.380;13.372;2022-12-29T12:30:45;99626.00;;;12.82;71.38
68525;BME280;55524;51.380;13.372;2022-12-29T12:33:29;99622.34;;;12.85;70.84
68525;BME280;55524;51.380;13.372;2022-12-29T12:50:10;99645.72;;;12.48;72.64
68525;BME280;55524;51.380;13.372;2022-12-29T13:12:01;99630.81;;;12.61;70.73
68525;BME280;55524;51.380;13.372;2022-12-29T13:25:44;99652.41;;;12.23;71.72
68525;BME280;55524;51.380;13.372;2022-12-29T13:28:31;99653.19;;;12.25;71.88
68525;BME280;55524;51.380;13.372;2022-12-29T13:31:15;99656.00;;;12.22;72.10
68525;BME280;55524;51.380;13.372;2022-12-29T13:38:56;99641.34;;;12.17;72.33
68525;BME280;55524;51.380;13.372;2022-12-29T13:41:40;99656.38;;;12.16;72.10
68525;BME280;55524;51.380;13.372;2022-12-29T13:44:09;99657.22;;;12.17;72.43
68525;BME280;55524;51.380;13.372;2022-12-29T13:46:44;99671.91;;;12.06;73.13
68525;BME280;55524;51.380;13.372;2022-12-29T13:51:49;99668.50;;;12.04;72.55
68525;BME280;55524;51.380;13.372;2022-12-29T14:07:43;99685.25;;;11.89;74.17
68525;BME280;55524;51.380;13.372;2022-12-29T14:13:17;99683.34;;;11.91;73.56
68525;BME280;55524;51.380;13.372;2022-12-29T14:16:04;99682.19;;;11.97;72.97
68525;BME280;55524;51.380;13.372;2022-12-29T14:18:40;99698.31;;;11.92;74.89
68525;BME280;55524;51.380;13.372;2022-12-29T14:21:19;99689.00;;;12.01;73.26
68525;BME280;55524;51.380;13.372;2022-12-29T14:23:50;99697.22;;;11.96;73.56
68525;BME280;55524;51.380;13.372;2022-12-29T14:26:33;99695.25;;;12.00;74.17
68525;BME280;55524;51.380;13.372;2022-12-29T14:31:47;99689.88;;;12.01;73.04
68525;BME280;55524;51.380;13.372;2022-12-29T14:37:00;99702.94;;;12.04;73.40
68525;BME280;55524;51.380;13.372;2022-12-29T14:39:40;99711.22;;;11.98;73.41
68525;BME280;55524;51.380;13.372;2022-12-29T14:42:14;99715.75;;;11.96;73.63
68525;BME280;55524;51.380;13.372;2022-12-29T14:44:51;99730.78;;;11.96;74.68
68525;BME280;55524;51.380;13.372;2022-12-29T14:47:31;99751.44;;;11.89;76.76
68525;BME280;55524;51.380;13.372;2022-12-29T14:50:17;99757.53;;;11.74;78.00
68525;BME280;55524;51.380;13.372;2022-12-29T14:53:04;99758.19;;;11.62;78.96
68525;BME280;55524;51.380;13.372;2022-12-29T14:55:54;99765.91;;;11.49;80.06
68525;BME280;55524;51.380;13.372;2022-12-29T14:58:30;99766.16;;;11.44;81.34
68525;BME280;55524;51.380;13.372;2022-12-29T15:00:58;99773.94;;;11.30;82.81
68525;BME280;55524;51.380;13.372;2022-12-29T15:03:47;99755.25;;;11.33;82.57
68525;BME280;55524;51.380;13.372;2022-12-29T15:06:13;99775.88;;;11.26;81.99
68525;BME280;55524;51.380;13.372;2022-12-29T15:14:02;99784.66;;;11.10;83.36
68525;BME280;55524;51.380;13.372;2022-12-29T15:16:33;99794.69;;;11.03;84.61
68525;BME280;55524;51.380;13.372;2022-12-29T15:19:03;99787.00;;;10.98;84.79
68525;BME280;55524;51.380;13.372;2022-12-29T15:21:35;99780.84;;;10.98;84.56
68525;BME280;55524;51.380;13.372;2022-12-29T15:24:02;99770.56;;;10.92;85.35
68525;BME280;55524;51.380;13.372;2022-12-29T15:26:49;99777.72;;;10.90;85.50
68525;BME280;55524;51.380;13.372;2022-12-29T15:29:38;99780.66;;;10.83;85.62
68525;BME280;55524;51.380;13.372;2022-12-29T15:32:20;99776.16;;;10.86;84.79
68525;BME280;55524;51.380;13.372;2022-12-29T15:34:50;99786.56;;;10.89;85.12
68525;BME280;55524;51.380;13.372;2022-12-29T15:37:32;99788.59;;;10.83;84.63
68525;BME280;55524;51.380;13.372;2022-12-29T15:39:59;99791.56;;;10.77;85.99
68525;BME280;55524;51.380;13.372;2022-12-29T15:42:59;99789.63;;;10.81;84.95